createdAt,value
2023-05-31T00:01:21.638Z,98205.75
2023-05-31T00:03:48.994Z,98200.88
2023-05-31T00:06:16.220Z,98199.00
2023-05-31T00:08:43.387Z,98199.00
2023-05-31T00:11:10.602Z,98207.09
2023-05-31T00:13:39.995Z,98200.63
2023-05-31T00:16:22.807Z,98199.34
2023-05-31T00:18:55.456Z,98196.69
2023-05-31T00:21:22.641Z,98202.03
2023-05-31T00:23:50.029Z,98204.31
2023-05-31T00:26:17.172Z,98194.47
2023-05-31T00:28:46.110Z,98200.16
2023-05-31T00:31:14.731Z,98205.03
2023-05-31T00:33:45.049Z,98207.81
2023-05-31T00:36:12.625Z,98204.22
2023-05-31T00:38:39.762Z,98206.09
2023-05-31T00:41:10.641Z,98203.31
2023-05-31T00:43:37.886Z,98199.34
2023-05-31T00:46:05.990Z,98205.97
2023-05-31T00:48:34.308Z,98195.88
2023-05-31T00:51:02.391Z,98196.44
2023-05-31T00:53:29.744Z,98193.88
2023-05-31T00:55:59.916Z,98200.53
2023-05-31T00:58:27.846Z,98199.59
2023-05-31T01:00:56.225Z,98202.63
2023-05-31T01:03:23.833Z,98197.13
2023-05-31T01:05:51.714Z,98200.75
2023-05-31T01:08:19.597Z,98194.47
2023-05-31T01:10:52.843Z,98200.84
2023-05-31T01:13:33.637Z,98199.47
2023-05-31T01:16:06.683Z,98199.91
2023-05-31T01:18:49.739Z,98199.72
2023-05-31T01:21:20.234Z,98196.91
2023-05-31T01:24:02.580Z,98198.06
2023-05-31T01:26:50.093Z,98196.19
2023-05-31T01:29:24.723Z,98189.13
2023-05-31T01:31:54.493Z,98190.41
2023-05-31T01:34:21.801Z,98194.09
2023-05-31T01:36:50.931Z,98192.03
2023-05-31T01:39:20.150Z,98191.91
2023-05-31T01:41:49.491Z,98195.88
2023-05-31T01:44:19.600Z,98195.75
2023-05-31T01:46:47.824Z,98202.69
2023-05-31T01:49:15.259Z,98203.97
2023-05-31T01:51:46.067Z,98204.53
2023-05-31T01:54:15.551Z,98207.56
2023-05-31T01:56:43.547Z,98207.31
2023-05-31T01:59:12.848Z,98210.13
2023-05-31T02:01:40.890Z,98213.00
2023-05-31T02:04:08.138Z,98222.53
2023-05-31T02:06:38.624Z,98212.06
2023-05-31T02:09:07.468Z,98220.91
2023-05-31T02:11:34.667Z,98231.09
2023-05-31T02:14:01.825Z,98224.34
2023-05-31T02:16:29.052Z,98222.75
2023-05-31T02:18:57.321Z,98224.22
2023-05-31T02:21:24.784Z,98230.59
2023-05-31T02:23:52.025Z,98215.81
2023-05-31T02:26:19.176Z,98222.41
2023-05-31T02:28:46.352Z,98214.78
2023-05-31T02:31:14.769Z,98221.22
2023-05-31T02:33:45.752Z,98223.03
2023-05-31T02:36:12.984Z,98207.31
2023-05-31T02:38:40.417Z,98206.03
2023-05-31T02:41:07.601Z,98203.84
2023-05-31T02:43:34.818Z,98200.44
2023-05-31T02:46:03.295Z,98205.63
2023-05-31T02:48:31.646Z,98205.84
2023-05-31T02:50:59.863Z,98204.81
2023-05-31T02:53:43.331Z,98203.72
2023-05-31T02:56:15.271Z,98208.75
2023-05-31T02:58:59.010Z,98212.06
2023-05-31T03:01:37.974Z,98221.50
2023-05-31T03:04:32.224Z,98226.56
2023-05-31T03:07:00.429Z,98227.88
2023-05-31T03:09:30.548Z,98224.34
2023-05-31T03:11:58.615Z,98231.34
2023-05-31T03:14:26.107Z,98232.16
2023-05-31T03:16:55.514Z,98233.94
2023-05-31T03:19:23.361Z,98241.44
2023-05-31T03:21:53.659Z,98242.19
2023-05-31T03:24:21.072Z,98239.31
2023-05-31T03:26:50.321Z,98235.06
2023-05-31T03:29:18.736Z,98242.59
2023-05-31T03:31:48.036Z,98246.59
2023-05-31T03:34:16.839Z,98249.81
2023-05-31T03:36:44.118Z,98255.25
2023-05-31T03:39:34.191Z,98255.75
2023-05-31T03:42:03.266Z,98257.31
2023-05-31T03:44:30.991Z,98263.38
2023-05-31T03:46:58.591Z,98256.03
2023-05-31T03:49:26.011Z,98260.91
2023-05-31T03:51:53.307Z,98259.91
2023-05-31T03:54:20.528Z,98259.81
2023-05-31T03:56:47.847Z,98269.59
2023-05-31T03:59:15.148Z,98263.72
2023-05-31T04:01:42.633Z,98261.41
2023-05-31T04:04:10.219Z,98266.66
2023-05-31T04:06:38.078Z,98256.72
2023-05-31T04:09:05.821Z,98265.22
2023-05-31T04:11:33.228Z,98267.28
2023-05-31T04:14:00.689Z,98262.72
2023-05-31T04:16:29.456Z,98265.38
2023-05-31T04:18:57.727Z,98257.38
2023-05-31T04:21:25.068Z,98262.72
2023-05-31T04:23:53.711Z,98261.59
2023-05-31T04:26:21.876Z,98273.97
2023-05-31T04:28:52.896Z,98274.16
2023-05-31T04:31:21.426Z,98285.88
2023-05-31T04:33:48.975Z,98277.22
2023-05-31T04:36:16.713Z,98285.56
2023-05-31T04:38:45.053Z,98287.53
2023-05-31T04:41:15.521Z,98285.22
2023-05-31T04:43:43.192Z,98278.69
2023-05-31T04:46:10.988Z,98270.09
2023-05-31T04:48:41.225Z,98266.81
2023-05-31T04:51:08.443Z,98268.94
2023-05-31T04:53:35.965Z,98272.19
2023-05-31T04:56:06.048Z,98274.00
2023-05-31T04:58:33.471Z,98273.00
2023-05-31T05:01:01.416Z,98265.84
2023-05-31T05:03:36.310Z,98268.13
2023-05-31T05:06:19.682Z,98270.38
2023-05-31T05:08:48.338Z,98266.13
2023-05-31T05:11:16.782Z,98271.19
2023-05-31T05:13:44.424Z,98274.50
2023-05-31T05:16:11.914Z,98272.72
2023-05-31T05:18:39.125Z,98268.78
2023-05-31T05:21:06.411Z,98269.81
2023-05-31T05:23:38.264Z,98270.25
2023-05-31T05:26:06.020Z,98273.84
2023-05-31T05:28:33.208Z,98272.84
2023-05-31T05:31:01.122Z,98266.44
2023-05-31T05:33:32.809Z,98275.19
2023-05-31T05:36:01.062Z,98268.78
2023-05-31T05:38:28.631Z,98271.25
2023-05-31T05:40:55.994Z,98271.44
2023-05-31T05:43:23.475Z,98268.56
2023-05-31T05:46:01.897Z,98273.44
2023-05-31T05:48:29.107Z,98275.09
2023-05-31T05:50:56.756Z,98277.69
2023-05-31T05:53:23.910Z,98280.91
2023-05-31T05:55:53.030Z,98269.56
2023-05-31T05:58:24.086Z,98268.97
2023-05-31T06:01:13.441Z,98267.75
2023-05-31T06:03:41.064Z,98273.91
2023-05-31T06:06:08.868Z,98278.91
2023-05-31T06:08:36.723Z,98280.50
2023-05-31T06:11:04.401Z,98276.88
2023-05-31T06:13:31.617Z,98284.47
2023-05-31T06:16:04.273Z,98286.31
2023-05-31T06:18:31.599Z,98287.94
2023-05-31T06:20:59.371Z,98283.16
2023-05-31T06:23:26.930Z,98284.63
2023-05-31T06:25:54.122Z,98287.97
2023-05-31T06:28:22.164Z,98282.50
2023-05-31T06:30:52.674Z,98280.66
2023-05-31T06:33:19.849Z,98271.78
2023-05-31T06:35:47.015Z,98280.84
2023-05-31T06:38:16.304Z,98292.00
2023-05-31T06:40:45.067Z,98276.38
2023-05-31T06:43:12.272Z,98275.94
2023-05-31T06:46:11.495Z,98273.78
2023-05-31T06:49:11.600Z,98265.34
2023-05-31T06:52:00.150Z,98270.88
2023-05-31T06:54:29.920Z,98261.34
2023-05-31T06:56:58.900Z,98261.97
2023-05-31T06:59:26.245Z,98262.50
2023-05-31T07:01:55.078Z,98261.88
2023-05-31T07:04:22.441Z,98260.00
2023-05-31T07:06:49.981Z,98255.22
2023-05-31T07:09:17.694Z,98256.69
2023-05-31T07:11:53.950Z,98257.78
2023-05-31T07:14:23.286Z,98257.94
2023-05-31T07:16:50.492Z,98256.25
2023-05-31T07:19:17.625Z,98259.84
2023-05-31T07:21:44.882Z,98261.66
2023-05-31T07:24:11.989Z,98264.44
2023-05-31T07:26:39.141Z,98258.09
2023-05-31T07:29:06.324Z,98264.09
2023-05-31T07:31:33.563Z,98262.16
2023-05-31T07:34:00.756Z,98250.91
2023-05-31T07:36:28.172Z,98251.44
2023-05-31T07:38:55.385Z,98253.28
2023-05-31T07:41:22.781Z,98262.03
2023-05-31T07:43:51.451Z,98252.94
2023-05-31T07:46:18.752Z,98249.84
2023-05-31T07:48:45.973Z,98253.88
2023-05-31T07:51:14.795Z,98241.56
2023-05-31T07:53:41.965Z,98232.09
2023-05-31T07:56:09.274Z,98230.59
2023-05-31T07:58:36.518Z,98236.63
2023-05-31T08:01:03.890Z,98227.50
2023-05-31T08:03:34.748Z,98232.97
2023-05-31T08:06:02.046Z,98236.34
2023-05-31T08:08:29.326Z,98227.91
2023-05-31T08:10:56.745Z,98236.41
2023-05-31T08:13:25.185Z,98230.06
2023-05-31T08:15:53.339Z,98228.97
2023-05-31T08:18:20.712Z,98220.25
2023-05-31T08:20:48.184Z,98222.72
2023-05-31T08:23:19.550Z,98233.72
2023-05-31T08:25:47.139Z,98223.38
2023-05-31T08:28:14.527Z,98227.91
2023-05-31T08:30:43.323Z,98220.66
2023-05-31T08:33:12.766Z,98222.38
2023-05-31T08:35:41.716Z,98223.97
2023-05-31T08:38:08.920Z,98219.09
2023-05-31T08:40:36.492Z,98214.69
2023-05-31T08:43:08.414Z,98220.97
2023-05-31T08:45:36.500Z,98218.25
2023-05-31T08:48:11.971Z,98219.38
2023-05-31T08:50:40.730Z,98216.97
2023-05-31T08:53:09.010Z,98209.34
2023-05-31T08:55:37.701Z,98217.88
2023-05-31T08:58:06.475Z,98213.53
2023-05-31T09:00:36.609Z,98214.03
2023-05-31T09:03:07.089Z,98219.34
2023-05-31T09:05:34.524Z,98214.41
2023-05-31T09:08:01.926Z,98218.28
2023-05-31T09:10:30.187Z,98215.88
2023-05-31T09:12:57.998Z,98215.94
2023-05-31T09:15:26.048Z,98208.97
2023-05-31T09:17:53.334Z,98211.22
2023-05-31T09:20:21.370Z,98217.13
2023-05-31T09:22:50.174Z,98206.56
2023-05-31T09:25:17.423Z,98203.94
2023-05-31T09:27:44.599Z,98210.13
2023-05-31T09:30:14.141Z,98196.94
2023-05-31T09:32:41.757Z,98195.44
2023-05-31T09:35:16.947Z,98204.72
2023-05-31T09:37:46.330Z,98186.41
2023-05-31T09:40:23.172Z,98184.97
2023-05-31T09:42:51.206Z,98194.25
2023-05-31T09:45:19.169Z,98184.25
2023-05-31T09:47:47.037Z,98184.22
2023-05-31T09:50:19.210Z,98183.94
2023-05-31T09:52:48.072Z,98173.31
2023-05-31T09:55:16.999Z,98171.50
2023-05-31T09:57:46.149Z,98163.66
2023-05-31T10:00:17.431Z,98165.88
2023-05-31T10:02:49.733Z,98167.41
2023-05-31T10:05:17.750Z,98166.25
2023-05-31T10:07:48.114Z,98173.31
2023-05-31T10:10:15.816Z,98165.81
2023-05-31T10:12:51.696Z,98160.69
2023-05-31T10:15:26.620Z,98154.94
2023-05-31T10:17:57.309Z,98157.53
2023-05-31T10:20:29.701Z,98161.03
2023-05-31T10:23:01.422Z,98154.00
2023-05-31T10:25:36.525Z,98156.19
2023-05-31T10:28:11.038Z,98140.06
2023-05-31T10:30:41.165Z,98150.59
2023-05-31T10:33:11.865Z,98146.16
2023-05-31T10:35:39.115Z,98147.22
2023-05-31T10:38:07.853Z,98132.72
2023-05-31T10:40:48.295Z,98144.00
2023-05-31T10:43:23.799Z,98137.19
2023-05-31T10:45:55.148Z,98134.41
2023-05-31T10:48:40.821Z,98140.28
2023-05-31T10:51:08.157Z,98139.84
2023-05-31T10:53:39.283Z,98133.31
2023-05-31T10:56:08.412Z,98135.75
2023-05-31T10:58:40.835Z,98132.53
2023-05-31T11:01:11.035Z,98126.97
2023-05-31T11:03:47.657Z,98128.28
2023-05-31T11:06:18.174Z,98124.59
2023-05-31T11:09:02.005Z,98115.25
2023-05-31T11:11:45.977Z,98119.28
2023-05-31T11:14:28.579Z,98123.19
2023-05-31T11:17:01.302Z,98119.34
2023-05-31T11:19:38.290Z,98115.81
2023-05-31T11:22:09.550Z,98115.19
2023-05-31T11:24:53.907Z,98118.00
2023-05-31T11:27:35.250Z,98114.78
2023-05-31T11:30:05.005Z,98115.09
2023-05-31T11:32:35.297Z,98099.91
2023-05-31T11:35:08.084Z,98102.16
2023-05-31T11:37:39.271Z,98107.78
2023-05-31T11:40:11.489Z,98113.91
2023-05-31T11:42:46.585Z,98104.97
2023-05-31T11:45:15.511Z,98100.19
2023-05-31T11:47:45.485Z,98105.53
2023-05-31T11:50:19.401Z,98102.31
2023-05-31T11:52:46.875Z,98095.28
2023-05-31T11:55:17.795Z,98095.34
2023-05-31T11:57:47.178Z,98092.72
2023-05-31T12:00:16.389Z,98089.50
2023-05-31T12:02:45.724Z,98074.31
2023-05-31T12:05:14.111Z,98083.59
2023-05-31T12:07:41.481Z,98073.78
2023-05-31T12:10:09.676Z,98087.44
2023-05-31T12:12:39.161Z,98074.94
2023-05-31T12:15:07.262Z,98078.03
2023-05-31T12:17:34.887Z,98083.63
2023-05-31T12:20:02.086Z,98076.78
2023-05-31T12:22:29.261Z,98071.06
2023-05-31T12:24:56.918Z,98067.59
2023-05-31T12:27:43.846Z,98072.03
2023-05-31T12:30:20.972Z,98065.75
2023-05-31T12:32:48.442Z,98064.16
2023-05-31T12:35:16.054Z,98063.38
2023-05-31T12:37:43.329Z,98060.13
2023-05-31T12:40:13.020Z,98056.47
2023-05-31T12:42:40.512Z,98066.31
2023-05-31T12:45:08.678Z,98065.59
2023-05-31T12:47:37.124Z,98056.75
2023-05-31T12:50:07.515Z,98058.50
2023-05-31T12:52:41.471Z,98056.19
2023-05-31T12:55:09.303Z,98061.06
2023-05-31T12:57:36.966Z,98059.84
2023-05-31T13:00:10.708Z,98058.25
2023-05-31T13:02:42.482Z,98053.81
2023-05-31T13:05:09.713Z,98053.47
2023-05-31T13:07:37.312Z,98055.81
2023-05-31T13:10:08.662Z,98054.22
2023-05-31T13:12:38.415Z,98042.25
2023-05-31T13:15:06.412Z,98039.41
2023-05-31T13:17:34.738Z,98037.00
2023-05-31T13:20:11.943Z,98034.59
2023-05-31T13:22:39.864Z,98038.66
2023-05-31T13:25:08.086Z,98045.50
2023-05-31T13:27:35.310Z,98042.31
2023-05-31T13:30:02.739Z,98035.88
2023-05-31T13:32:30.210Z,98026.22
2023-05-31T13:35:00.666Z,98025.81
2023-05-31T13:37:28.744Z,98023.38
2023-05-31T13:39:56.703Z,98020.97
2023-05-31T13:42:24.563Z,98011.72
2023-05-31T13:44:51.990Z,98017.78
2023-05-31T13:47:19.281Z,98007.69
2023-05-31T13:49:46.452Z,98009.72
2023-05-31T13:52:15.505Z,98011.31
2023-05-31T13:54:42.939Z,98011.75
2023-05-31T13:57:10.254Z,98006.91
2023-05-31T13:59:37.514Z,98001.63
2023-05-31T14:02:04.720Z,97996.38
2023-05-31T14:04:32.413Z,98011.31
2023-05-31T14:06:59.613Z,98006.88
2023-05-31T14:09:27.413Z,97989.56
2023-05-31T14:11:55.145Z,98005.28
2023-05-31T14:14:22.498Z,97999.19
2023-05-31T14:16:49.763Z,97995.84
2023-05-31T14:19:17.032Z,97993.38
2023-05-31T14:21:44.303Z,97994.53
2023-05-31T14:24:11.498Z,97984.19
2023-05-31T14:26:38.671Z,97970.66
2023-05-31T14:29:05.843Z,97969.84
2023-05-31T14:31:33.443Z,97969.38
2023-05-31T14:34:00.659Z,97970.09
2023-05-31T14:36:28.169Z,97970.88
2023-05-31T14:38:56.140Z,97974.31
2023-05-31T14:41:23.529Z,97972.19
2023-05-31T14:43:50.840Z,97972.41
2023-05-31T14:46:18.079Z,97969.00
2023-05-31T14:48:45.361Z,97964.44
2023-05-31T14:51:12.508Z,97959.88
2023-05-31T14:53:39.748Z,97967.75
2023-05-31T14:56:17.324Z,97965.22
2023-05-31T14:58:47.792Z,97955.03
2023-05-31T15:01:15.994Z,97955.38
2023-05-31T15:03:43.283Z,97957.69
2023-05-31T15:06:10.642Z,97950.03
2023-05-31T15:08:37.762Z,97943.00
2023-05-31T15:11:05.041Z,97937.63
2023-05-31T15:13:32.240Z,97948.72
2023-05-31T15:15:59.552Z,97957.19
2023-05-31T15:18:26.768Z,97948.66
2023-05-31T15:20:54.141Z,97953.03
2023-05-31T15:23:21.344Z,97944.91
2023-05-31T15:25:48.490Z,97946.44
2023-05-31T15:28:16.075Z,97946.88
2023-05-31T15:30:43.209Z,97942.47
2023-05-31T15:33:10.845Z,97938.69
2023-05-31T15:35:38.404Z,97928.88
2023-05-31T15:38:05.653Z,97929.06
2023-05-31T15:40:33.282Z,97927.34
2023-05-31T15:43:00.515Z,97922.72
2023-05-31T15:45:27.630Z,97922.19
2023-05-31T15:47:54.799Z,97930.91
2023-05-31T15:50:22.028Z,97914.88
2023-05-31T15:52:49.152Z,97924.81
2023-05-31T15:55:16.314Z,97924.84
2023-05-31T15:57:43.459Z,97908.53
2023-05-31T16:00:11.090Z,97914.13
2023-05-31T16:02:40.789Z,97916.25
2023-05-31T16:05:09.918Z,97913.19
2023-05-31T16:07:37.505Z,97916.78
2023-05-31T16:10:05.031Z,97912.16
2023-05-31T16:12:32.180Z,97908.09
2023-05-31T16:15:00.538Z,97907.63
2023-05-31T16:17:27.894Z,97907.44
2023-05-31T16:19:55.096Z,97906.47
2023-05-31T16:22:22.564Z,97906.72
2023-05-31T16:24:50.692Z,97901.59
2023-05-31T16:27:18.670Z,97896.19
2023-05-31T16:29:46.134Z,97899.41
2023-05-31T16:32:13.533Z,97908.09
2023-05-31T16:34:40.854Z,97891.81
2023-05-31T16:37:09.863Z,97897.31
2023-05-31T16:39:37.428Z,97892.00
2023-05-31T16:42:07.143Z,97885.69
2023-05-31T16:44:35.792Z,97887.75
2023-05-31T16:47:03.362Z,97881.06
2023-05-31T16:49:30.560Z,97890.25
2023-05-31T16:51:57.770Z,97885.19
2023-05-31T16:54:24.990Z,97882.31
2023-05-31T16:56:52.205Z,97886.75
2023-05-31T16:59:19.402Z,97886.63
2023-05-31T17:01:46.664Z,97879.16
2023-05-31T17:04:13.907Z,97884.44
2023-05-31T17:06:41.070Z,97891.41
2023-05-31T17:09:08.217Z,97885.50
2023-05-31T17:11:37.642Z,97880.16
2023-05-31T17:14:04.837Z,97879.13
2023-05-31T17:16:32.111Z,97885.69
2023-05-31T17:18:59.918Z,97886.53
2023-05-31T17:21:27.149Z,97887.34
2023-05-31T17:23:54.366Z,97891.91
2023-05-31T17:26:23.468Z,97885.47
2023-05-31T17:28:50.668Z,97885.50
2023-05-31T17:31:17.956Z,97885.22
2023-05-31T17:33:45.216Z,97887.28
2023-05-31T17:36:12.798Z,97888.47
2023-05-31T17:38:39.931Z,97889.72
2023-05-31T17:41:07.138Z,97892.94
2023-05-31T17:43:34.334Z,97889.34
2023-05-31T17:46:03.602Z,97889.78
2023-05-31T17:48:31.045Z,97887.34
2023-05-31T17:50:58.343Z,97898.22
2023-05-31T17:53:25.865Z,97893.78
2023-05-31T17:55:53.098Z,97895.78
2023-05-31T17:58:20.481Z,97895.38
2023-05-31T18:00:47.612Z,97895.00
2023-05-31T18:03:14.947Z,97893.34
2023-05-31T18:05:42.137Z,97889.34
2023-05-31T18:08:09.245Z,97898.59
2023-05-31T18:10:36.412Z,97894.94
2023-05-31T18:13:03.869Z,97892.50
2023-05-31T18:15:30.990Z,97894.50
2023-05-31T18:17:58.286Z,97889.25
2023-05-31T18:20:25.439Z,97894.88
2023-05-31T18:22:52.578Z,97894.09
2023-05-31T18:25:21.935Z,97904.13
2023-05-31T18:27:49.218Z,97893.31
2023-05-31T18:30:16.368Z,97892.88
2023-05-31T18:32:44.013Z,97889.59
2023-05-31T18:35:11.208Z,97891.13
2023-05-31T18:37:38.883Z,97896.78
2023-05-31T18:40:06.741Z,97902.75
2023-05-31T18:42:33.954Z,97907.19
2023-05-31T18:45:01.442Z,97895.91
2023-05-31T18:47:29.406Z,97902.22
2023-05-31T18:49:56.562Z,97912.09
2023-05-31T18:52:23.775Z,97903.78
2023-05-31T18:54:50.956Z,97908.19
2023-05-31T18:57:18.773Z,97912.41
2023-05-31T18:59:46.428Z,97915.28
2023-05-31T19:02:13.554Z,97919.94
2023-05-31T19:04:40.808Z,97912.28
2023-05-31T19:07:08.012Z,97912.81
2023-05-31T19:09:35.568Z,97914.63
2023-05-31T19:12:03.436Z,97912.88
2023-05-31T19:14:30.586Z,97921.78
2023-05-31T19:16:57.921Z,97918.63
2023-05-31T19:19:25.139Z,97927.91
2023-05-31T19:21:52.403Z,97925.22
2023-05-31T19:24:19.582Z,97933.88
2023-05-31T19:26:46.813Z,97931.56
2023-05-31T19:29:13.972Z,97936.63
2023-05-31T19:31:42.398Z,97934.88
2023-05-31T19:34:09.732Z,97939.56
2023-05-31T19:36:36.969Z,97935.56
2023-05-31T19:39:04.213Z,97947.69
2023-05-31T19:41:31.433Z,97945.59
2023-05-31T19:43:58.960Z,97943.91
2023-05-31T19:46:26.379Z,97940.72
2023-05-31T19:48:53.644Z,97946.56
2023-05-31T19:51:21.096Z,97946.41
2023-05-31T19:53:49.004Z,97951.47
2023-05-31T19:56:16.140Z,97956.00
2023-05-31T19:58:44.533Z,97949.06
2023-05-31T20:01:11.675Z,97952.72
2023-05-31T20:03:39.900Z,97952.97
2023-05-31T20:06:07.255Z,97954.06
2023-05-31T20:08:34.610Z,97949.47
2023-05-31T20:11:01.803Z,97952.75
2023-05-31T20:13:29.098Z,97958.69
2023-05-31T20:15:56.277Z,97955.06
2023-05-31T20:18:23.743Z,97957.81
2023-05-31T20:20:51.786Z,97953.34
2023-05-31T20:23:19.263Z,97949.00
2023-05-31T20:25:46.500Z,97953.97
2023-05-31T20:28:13.649Z,97951.34
2023-05-31T20:30:40.832Z,97946.50
2023-05-31T20:33:08.147Z,97941.59
2023-05-31T20:35:35.370Z,97947.63
2023-05-31T20:38:02.682Z,97947.91
2023-05-31T20:40:29.807Z,97950.69
2023-05-31T20:42:56.948Z,97949.44
2023-05-31T20:45:24.169Z,97941.16
2023-05-31T20:47:51.484Z,97944.63
2023-05-31T20:50:20.346Z,97943.88
2023-05-31T20:52:47.869Z,97940.94
2023-05-31T20:55:15.606Z,97943.47
2023-05-31T20:57:43.298Z,97952.69
2023-05-31T21:00:11.752Z,97945.56
2023-05-31T21:02:39.112Z,97947.81
2023-05-31T21:05:06.489Z,97946.47
2023-05-31T21:07:33.628Z,97954.56
2023-05-31T21:10:01.716Z,97949.22
2023-05-31T21:12:29.110Z,97951.19
2023-05-31T21:14:56.266Z,97948.25
2023-05-31T21:17:24.187Z,97952.53
2023-05-31T21:19:51.456Z,97953.53
2023-05-31T21:22:18.584Z,97942.16
2023-05-31T21:24:45.708Z,97949.44
2023-05-31T21:27:13.010Z,97943.25
2023-05-31T21:29:40.304Z,97955.19
2023-05-31T21:32:07.702Z,97957.31
2023-05-31T21:34:35.022Z,97954.81
2023-05-31T21:37:02.230Z,97951.25
2023-05-31T21:39:29.558Z,97948.41
2023-05-31T21:41:56.885Z,97948.28
2023-05-31T21:44:24.202Z,97950.56
2023-05-31T21:46:53.485Z,97950.50
2023-05-31T21:49:20.744Z,97952.41
2023-05-31T21:51:47.927Z,97948.53
2023-05-31T21:54:15.213Z,97954.59
2023-05-31T21:56:42.409Z,97959.88
2023-05-31T21:59:09.565Z,97963.84
2023-05-31T22:01:36.806Z,97959.91
2023-05-31T22:04:04.023Z,97965.78
2023-05-31T22:06:32.182Z,97960.19
2023-05-31T22:08:59.343Z,97962.44
2023-05-31T22:11:27.113Z,97962.13
2023-05-31T22:13:54.363Z,97957.34
2023-05-31T22:16:22.541Z,97967.88
2023-05-31T22:18:52.338Z,97965.94
2023-05-31T22:21:24.315Z,97966.81
2023-05-31T22:23:52.722Z,97967.81
2023-05-31T22:26:21.295Z,97971.72
2023-05-31T22:28:50.052Z,97970.84
2023-05-31T22:31:17.670Z,97970.91
2023-05-31T22:33:47.188Z,97967.75
2023-05-31T22:36:15.847Z,97968.94
2023-05-31T22:38:43.081Z,97958.16
2023-05-31T22:41:10.404Z,97959.03
2023-05-31T22:43:37.557Z,97958.59
2023-05-31T22:46:04.764Z,97956.31
2023-05-31T22:48:33.890Z,97961.91
2023-05-31T22:51:02.230Z,97963.72
2023-05-31T22:53:29.882Z,97964.41
2023-05-31T22:55:57.076Z,97962.84
2023-05-31T22:58:24.283Z,97964.81
2023-05-31T23:00:51.414Z,97968.78
2023-05-31T23:03:20.072Z,97967.31
2023-05-31T23:05:47.246Z,97966.59
2023-05-31T23:08:14.397Z,97962.84
2023-05-31T23:10:41.612Z,97962.63
2023-05-31T23:13:10.942Z,97961.69
2023-05-31T23:15:38.467Z,97957.47
2023-05-31T23:18:10.489Z,97956.28
2023-05-31T23:20:39.801Z,97949.41
2023-05-31T23:23:07.657Z,97954.84
2023-05-31T23:25:35.252Z,97955.16
2023-05-31T23:28:03.140Z,97945.66
2023-05-31T23:30:30.266Z,97959.09
2023-05-31T23:32:57.427Z,97948.53
2023-05-31T23:35:24.674Z,97953.09
2023-05-31T23:37:52.425Z,97947.47
2023-05-31T23:40:20.198Z,97948.44
2023-05-31T23:42:47.328Z,97946.81
2023-05-31T23:45:14.733Z,97950.19
2023-05-31T23:47:42.142Z,97950.63
2023-05-31T23:50:09.892Z,97944.97
2023-05-31T23:52:37.253Z,97945.94
2023-05-31T23:55:05.552Z,97949.31
2023-05-31T23:57:34.297Z,97944.41
